Time;durP1;ratioP1;P1;durP2;ratioP2;P2;SDS_P1;SDS_P2;PMS_P1;PMS_P2;Temp;Humidity;BMP_temperature;BMP_pressure;BME280_temperature;BME280_humidity;BME280_pressure;Samples;Min_cycle;Max_cycle;Signal;HPM_P1;HPM_P2
2022/07/16 00:02:27;;;;;;;;;;;16.10;99.90;;;;;;5071814;28;19910;-74
2022/07/16 00:04:52;;;;;;;;;;;16.10;99.90;;;;;;5072590;28;19904;-75
2022/07/16 00:07:19;;;;;;;;;;;16.10;99.90;;;;;;5072241;28;20003;-74
2022/07/16 00:09:44;;;;;;;;;;;16.00;99.90;;;;;;5072812;28;19957;-74
2022/07/16 00:12:10;;;;;;;;;;;16.10;99.90;;;;;;5072866;28;19912;-74
2022/07/16 00:14:36;;;;;;;;;;;16.10;99.90;;;;;;5072284;28;19958;-74
2022/07/16 00:17:02;;;;;;;;;;;16.10;99.90;;;;;;5072569;28;20354;-75
2022/07/16 00:19:28;;;;;;;;;;;16.00;99.90;;;;;;5071985;28;19905;-76
2022/07/16 00:21:54;;;;;;;;;;;16.00;99.90;;;;;;5072828;28;20271;-75
2022/07/16 00:24:20;;;;;;;;;;;15.90;99.90;;;;;;5071935;28;20286;-74
2022/07/16 00:26:47;;;;;;;;;;;16.00;99.90;;;;;;5072905;28;19905;-74
2022/07/16 00:29:12;;;;;;;;;;;16.00;99.90;;;;;;5076844;28;19905;-75
2022/07/16 00:31:38;;;;;;;;;;;16.00;99.90;;;;;;5076079;28;19983;-75
2022/07/16 00:34:07;;;;;;;;;;;16.00;99.90;;;;;;5076789;28;20389;-75
2022/07/16 00:36:33;;;;;;;;;;;16.00;99.90;;;;;;5075940;28;20007;-74
2022/07/16 00:38:59;;;;;;;;;;;16.00;99.90;;;;;;5076930;28;19908;-75
2022/07/16 00:41:24;;;;;;;;;;;16.10;99.90;;;;;;5076114;28;19905;-74
2022/07/16 00:43:52;;;;;;;;;;;16.00;99.90;;;;;;5076339;28;19911;-75
2022/07/16 00:46:17;;;;;;;;;;;16.00;99.90;;;;;;5076347;28;19916;-75
2022/07/16 00:48:44;;;;;;;;;;;16.00;99.90;;;;;;5075850;28;19957;-74
2022/07/16 00:51:09;;;;;;;;;;;16.00;99.90;;;;;;5076873;28;19955;-75
2022/07/16 00:53:35;;;;;;;;;;;16.00;99.90;;;;;;5075722;28;19967;-74
2022/07/16 00:56:02;;;;;;;;;;;16.00;99.90;;;;;;5076373;28;19912;-74
2022/07/16 00:58:28;;;;;;;;;;;15.90;99.90;;;;;;5075594;28;20304;-74
2022/07/16 01:00:53;;;;;;;;;;;15.90;99.90;;;;;;5076426;28;19904;-74
2022/07/16 01:03:19;;;;;;;;;;;15.90;99.90;;;;;;5058228;28;19919;-74
2022/07/16 01:05:45;;;;;;;;;;;15.90;99.90;;;;;;5075382;28;19912;-74
2022/07/16 01:08:11;;;;;;;;;;;16.00;99.90;;;;;;5075763;28;20038;-74
2022/07/16 01:10:38;;;;;;;;;;;15.90;99.90;;;;;;5075449;28;19904;-74
2022/07/16 01:13:04;;;;;;;;;;;16.00;99.90;;;;;;5075821;28;19908;-74
2022/07/16 01:15:29;;;;;;;;;;;16.00;99.90;;;;;;5075523;28;19995;-74
2022/07/16 01:17:55;;;;;;;;;;;15.90;99.90;;;;;;5076047;28;20258;-74
2022/07/16 01:20:21;;;;;;;;;;;15.90;99.90;;;;;;5075998;28;19962;-74
2022/07/16 01:22:46;;;;;;;;;;;15.90;99.90;;;;;;5057683;28;19912;-75
2022/07/16 01:25:12;;;;;;;;;;;15.90;99.90;;;;;;5075754;28;19911;-76
2022/07/16 01:27:38;;;;;;;;;;;15.90;99.90;;;;;;5075342;28;19954;-75
2022/07/16 01:30:08;;;;;;;;;;;15.90;99.90;;;;;;5075699;28;20010;-75
2022/07/16 01:32:33;;;;;;;;;;;15.90;99.90;;;;;;5057367;28;19908;-75
2022/07/16 01:34:59;;;;;;;;;;;15.90;99.90;;;;;;5075610;28;19935;-75
2022/07/16 01:37:24;;;;;;;;;;;15.90;99.90;;;;;;5075654;28;19908;-75
2022/07/16 01:39:50;;;;;;;;;;;15.90;99.90;;;;;;5074855;28;19904;-75
2022/07/16 01:42:16;;;;;;;;;;;15.90;99.90;;;;;;5075938;28;19905;-75
2022/07/16 01:44:41;;;;;;;;;;;15.80;99.90;;;;;;5075252;28;19931;-75
2022/07/16 01:47:07;;;;;;;;;;;15.90;99.90;;;;;;5075677;28;19916;-76
2022/07/16 01:49:34;;;;;;;;;;;15.90;99.90;;;;;;5075677;28;19911;-75
2022/07/16 01:52:03;;;;;;;;;;;15.80;99.90;;;;;;5076097;28;19919;-75
2022/07/16 01:54:29;;;;;;;;;;;15.90;99.90;;;;;;5075465;28;19947;-75
2022/07/16 01:56:54;;;;;;;;;;;16.00;99.90;;;;;;5076217;28;19966;-75
2022/07/16 01:59:20;;;;;;;;;;;16.10;99.90;;;;;;5079776;28;19912;-77
2022/07/16 02:01:46;;;;;;;;;;;16.20;99.90;;;;;;5091140;28;19904;-76
2022/07/16 02:04:11;;;;;;;;;;;16.10;99.90;;;;;;5083521;28;19995;-76
2022/07/16 02:06:37;;;;;;;;;;;16.10;99.90;;;;;;5075640;28;20263;-75
2022/07/16 02:09:02;;;;;;;;;;;16.10;99.90;;;;;;5091018;28;19900;-75
2022/07/16 02:11:28;;;;;;;;;;;16.10;99.90;;;;;;5086561;28;19920;-75
2022/07/16 02:13:53;;;;;;;;;;;16.10;99.90;;;;;;5075018;28;20313;-75
2022/07/16 02:16:19;;;;;;;;;;;16.10;99.90;;;;;;5074864;28;19908;-76
2022/07/16 02:18:45;;;;;;;;;;;16.10;99.90;;;;;;5074549;28;20048;-75
2022/07/16 02:21:10;;;;;;;;;;;16.10;99.90;;;;;;5075111;28;20022;-75
2022/07/16 02:23:36;;;;;;;;;;;16.10;99.90;;;;;;5074306;28;19908;-76
2022/07/16 02:26:01;;;;;;;;;;;16.10;99.90;;;;;;5074847;28;19911;-75
2022/07/16 02:28:27;;;;;;;;;;;16.00;99.90;;;;;;5055956;28;20370;-75
2022/07/16 02:30:53;;;;;;;;;;;16.00;99.90;;;;;;5074481;28;19905;-75
2022/07/16 02:33:19;;;;;;;;;;;15.90;99.90;;;;;;5056510;28;19912;-75
2022/07/16 02:35:45;;;;;;;;;;;15.90;99.90;;;;;;5073726;28;20844;-75
2022/07/16 02:38:11;;;;;;;;;;;15.80;99.90;;;;;;5074451;28;19939;-75
2022/07/16 02:40:38;;;;;;;;;;;15.70;99.90;;;;;;5073729;28;19908;-75
2022/07/16 02:43:04;;;;;;;;;;;15.60;99.90;;;;;;5074346;28;19908;-75
2022/07/16 02:45:31;;;;;;;;;;;15.60;99.90;;;;;;5073638;28;19959;-75
2022/07/16 02:47:56;;;;;;;;;;;15.50;99.90;;;;;;5074814;28;19904;-75
2022/07/16 02:50:22;;;;;;;;;;;15.50;99.90;;;;;;5073215;28;19905;-75
2022/07/16 02:52:48;;;;;;;;;;;15.30;99.90;;;;;;5073084;28;20065;-74
2022/07/16 02:55:13;;;;;;;;;;;15.30;99.90;;;;;;5074287;28;19915;-75
2022/07/16 02:57:39;;;;;;;;;;;15.30;99.90;;;;;;5073270;28;20001;-75
2022/07/16 03:00:06;;;;;;;;;;;15.20;99.90;;;;;;5074145;28;19908;-75
2022/07/16 03:02:32;;;;;;;;;;;15.10;99.90;;;;;;5073376;28;19905;-75
2022/07/16 03:04:57;;;;;;;;;;;15.10;99.90;;;;;;5073600;28;20262;-76
2022/07/16 03:07:23;;;;;;;;;;;15.10;99.90;;;;;;5073720;28;19905;-75
2022/07/16 03:09:48;;;;;;;;;;;15.00;99.90;;;;;;5073283;28;19914;-75
2022/07/16 03:12:14;;;;;;;;;;;15.00;99.90;;;;;;5073621;28;20351;-75
2022/07/16 03:14:39;;;;;;;;;;;14.90;99.90;;;;;;5073580;28;20003;-75
2022/07/16 03:17:05;;;;;;;;;;;14.80;99.90;;;;;;5073792;28;19905;-75
2022/07/16 03:19:30;;;;;;;;;;;14.70;99.90;;;;;;5073064;28;19995;-74
2022/07/16 03:21:56;;;;;;;;;;;14.70;99.90;;;;;;5055861;28;19904;-75
2022/07/16 03:24:22;;;;;;;;;;;14.70;99.90;;;;;;5073650;28;19905;-75
2022/07/16 03:26:47;;;;;;;;;;;14.70;99.90;;;;;;5072961;28;20700;-74
2022/07/16 03:29:13;;;;;;;;;;;14.60;99.90;;;;;;5073273;28;19904;-76
2022/07/16 03:31:38;;;;;;;;;;;14.60;99.90;;;;;;5072837;28;19908;-75
2022/07/16 03:34:04;;;;;;;;;;;14.60;99.90;;;;;;5073351;28;19912;-75
2022/07/16 03:36:29;;;;;;;;;;;14.60;99.90;;;;;;5072992;28;20318;-75
2022/07/16 03:39:04;;;;;;;;;;;14.60;99.90;;;;;;5073086;28;19904;-75
2022/07/16 03:41:31;;;;;;;;;;;14.60;99.90;;;;;;5073081;28;20086;-74
2022/07/16 03:44:00;;;;;;;;;;;14.60;99.90;;;;;;5073186;28;19905;-75
2022/07/16 03:46:26;;;;;;;;;;;14.50;99.90;;;;;;5072870;28;19923;-75
2022/07/16 03:48:51;;;;;;;;;;;14.40;99.90;;;;;;5072224;28;19905;-75
2022/07/16 03:51:17;;;;;;;;;;;14.30;99.90;;;;;;5073069;28;19904;-75
2022/07/16 03:53:42;;;;;;;;;;;14.30;99.90;;;;;;5072533;28;20015;-74
2022/07/16 03:56:08;;;;;;;;;;;14.30;99.90;;;;;;5072909;28;20384;-75
2022/07/16 03:58:35;;;;;;;;;;;14.40;99.90;;;;;;5072569;28;19905;-75
2022/07/16 04:01:00;;;;;;;;;;;14.30;99.90;;;;;;5073016;28;19958;-75
2022/07/16 04:03:26;;;;;;;;;;;14.20;99.90;;;;;;5054698;28;19908;-75
2022/07/16 04:05:51;;;;;;;;;;;14.20;99.90;;;;;;5054119;28;19996;-75
2022/07/16 04:08:18;;;;;;;;;;;14.10;99.90;;;;;;5072699;28;19936;-76
2022/07/16 04:10:43;;;;;;;;;;;14.20;99.90;;;;;;5072370;28;19950;-76
2022/07/16 04:13:09;;;;;;;;;;;14.20;99.90;;;;;;5072665;28;19912;-76
2022/07/16 04:15:35;;;;;;;;;;;14.10;99.90;;;;;;5072374;28;20367;-76
2022/07/16 04:18:00;;;;;;;;;;;14.00;99.90;;;;;;5072816;28;19904;-76
2022/07/16 04:20:26;;;;;;;;;;;14.00;99.90;;;;;;5072839;28;20313;-75
2022/07/16 04:22:52;;;;;;;;;;;14.10;99.90;;;;;;5072331;28;19957;-76
2022/07/16 04:25:19;;;;;;;;;;;14.10;99.90;;;;;;5072742;28;20387;-76
2022/07/16 04:27:45;;;;;;;;;;;14.10;99.90;;;;;;5072205;28;19958;-75
2022/07/16 04:30:11;;;;;;;;;;;14.10;99.90;;;;;;5072506;28;20317;-76
2022/07/16 04:32:37;;;;;;;;;;;14.10;99.90;;;;;;5071653;28;19908;-75
2022/07/16 04:35:03;;;;;;;;;;;14.00;99.90;;;;;;5072590;28;19916;-75
2022/07/16 04:37:28;;;;;;;;;;;14.00;99.90;;;;;;5072707;28;19909;-76
2022/07/16 04:39:54;;;;;;;;;;;13.90;99.90;;;;;;5072058;28;19901;-75
2022/07/16 04:42:20;;;;;;;;;;;14.00;99.90;;;;;;5072291;28;19999;-75
2022/07/16 04:44:45;;;;;;;;;;;14.00;99.90;;;;;;5071755;28;19941;-74
2022/07/16 04:47:11;;;;;;;;;;;14.10;99.90;;;;;;5072532;28;19916;-75
2022/07/16 04:49:38;;;;;;;;;;;14.20;99.90;;;;;;5071939;28;19928;-75
2022/07/16 04:52:03;;;;;;;;;;;14.20;99.90;;;;;;5072149;28;20366;-75
2022/07/16 04:54:29;;;;;;;;;;;14.20;99.90;;;;;;5072190;28;19908;-75
2022/07/16 04:56:55;;;;;;;;;;;14.20;99.90;;;;;;5071919;28;19904;-75
2022/07/16 04:59:20;;;;;;;;;;;14.10;99.90;;;;;;5072410;28;19904;-75
2022/07/16 05:01:46;;;;;;;;;;;14.10;99.90;;;;;;5053878;28;19947;-74
2022/07/16 05:04:11;;;;;;;;;;;14.10;99.90;;;;;;5054257;28;19909;-76
2022/07/16 05:06:37;;;;;;;;;;;14.10;99.90;;;;;;5071553;28;19958;-74
2022/07/16 05:09:03;;;;;;;;;;;14.20;99.90;;;;;;5072340;28;19927;-75
2022/07/16 05:11:29;;;;;;;;;;;14.30;99.90;;;;;;5072402;28;19915;-75
2022/07/16 05:13:55;;;;;;;;;;;14.50;99.90;;;;;;5071968;28;19943;-75
2022/07/16 05:16:22;;;;;;;;;;;14.50;99.90;;;;;;5076025;28;20278;-75
2022/07/16 05:18:47;;;;;;;;;;;14.60;99.90;;;;;;5057623;28;19915;-75
2022/07/16 05:21:13;;;;;;;;;;;14.80;99.90;;;;;;5075790;28;20350;-74
2022/07/16 05:23:39;;;;;;;;;;;14.90;99.90;;;;;;5075351;28;19908;-74
2022/07/16 05:26:04;;;;;;;;;;;15.00;99.90;;;;;;5075387;28;20273;-75
2022/07/16 05:28:30;;;;;;;;;;;15.10;99.90;;;;;;5075513;28;20313;-75
2022/07/16 05:30:55;;;;;;;;;;;15.30;99.90;;;;;;5075107;28;19919;-75
2022/07/16 05:33:21;;;;;;;;;;;15.40;99.90;;;;;;5075435;28;19934;-75
2022/07/16 05:35:47;;;;;;;;;;;15.50;99.90;;;;;;5074792;28;19904;-75
2022/07/16 05:38:12;;;;;;;;;;;15.60;99.90;;;;;;5075512;28;19908;-75
2022/07/16 05:40:38;;;;;;;;;;;15.70;99.90;;;;;;5075290;28;19908;-75
2022/07/16 05:43:04;;;;;;;;;;;15.70;99.90;;;;;;5074938;28;19944;-75
2022/07/16 05:45:29;;;;;;;;;;;15.80;99.90;;;;;;5075417;28;20355;-75
2022/07/16 05:47:55;;;;;;;;;;;15.80;99.90;;;;;;5074800;28;19909;-75
2022/07/16 05:50:21;;;;;;;;;;;15.90;99.90;;;;;;5075702;28;19957;-75
2022/07/16 05:52:46;;;;;;;;;;;15.90;99.90;;;;;;5074766;28;19913;-75
2022/07/16 05:55:12;;;;;;;;;;;16.00;99.90;;;;;;5075545;28;19904;-75
2022/07/16 05:57:37;;;;;;;;;;;16.10;99.90;;;;;;5074976;28;19904;-75
2022/07/16 06:00:05;;;;;;;;;;;16.30;99.90;;;;;;5074729;28;19954;-75
2022/07/16 06:02:31;;;;;;;;;;;16.40;99.90;;;;;;5075347;28;20370;-75
2022/07/16 06:04:56;;;;;;;;;;;16.50;99.90;;;;;;5074568;28;19905;-76
2022/07/16 06:07:22;;;;;;;;;;;16.60;99.90;;;;;;5075124;28;20359;-75
2022/07/16 06:09:47;;;;;;;;;;;16.80;99.90;;;;;;5074243;28;19950;-74
2022/07/16 06:12:13;;;;;;;;;;;16.90;99.90;;;;;;5074955;28;19948;-75
2022/07/16 06:14:39;;;;;;;;;;;17.00;99.90;;;;;;5056699;28;19908;-75
2022/07/16 06:17:04;;;;;;;;;;;17.10;99.90;;;;;;5074251;28;19904;-75
2022/07/16 06:19:30;;;;;;;;;;;17.20;99.90;;;;;;5074634;28;20315;-76
2022/07/16 06:21:55;;;;;;;;;;;17.30;99.90;;;;;;5073880;28;19904;-75
2022/07/16 06:24:21;;;;;;;;;;;17.30;99.90;;;;;;5075007;28;19940;-77
2022/07/16 06:26:47;;;;;;;;;;;17.30;99.90;;;;;;5073916;28;20358;-74
2022/07/16 06:29:16;;;;;;;;;;;17.40;99.90;;;;;;5074714;28;20386;-76
2022/07/16 06:31:42;;;;;;;;;;;17.40;99.90;;;;;;5074345;28;19904;-75
2022/07/16 06:34:07;;;;;;;;;;;17.60;99.90;;;;;;5074367;28;20401;-76
2022/07/16 06:36:33;;;;;;;;;;;17.70;99.90;;;;;;5074398;28;19904;-76
2022/07/16 06:38:58;;;;;;;;;;;17.70;99.90;;;;;;5073624;28;19915;-75
2022/07/16 06:41:24;;;;;;;;;;;17.70;99.90;;;;;;5074422;28;19991;-75
2022/07/16 06:43:50;;;;;;;;;;;17.70;99.90;;;;;;5073681;28;19911;-75
2022/07/16 06:46:15;;;;;;;;;;;17.80;99.90;;;;;;5074274;28;20365;-75
2022/07/16 06:48:41;;;;;;;;;;;17.90;99.90;;;;;;5074048;28;19908;-75
2022/07/16 06:51:06;;;;;;;;;;;17.90;99.90;;;;;;5073532;28;19904;-76
2022/07/16 06:53:34;;;;;;;;;;;17.90;99.90;;;;;;5073780;28;20428;-76
2022/07/16 06:56:00;;;;;;;;;;;18.00;99.90;;;;;;5073539;28;19911;-76
2022/07/16 06:58:26;;;;;;;;;;;18.00;99.90;;;;;;5074299;28;19905;-76
2022/07/16 07:00:52;;;;;;;;;;;18.10;99.90;;;;;;5073494;28;19904;-75
2022/07/16 07:03:17;;;;;;;;;;;18.10;99.90;;;;;;5073994;28;19905;-76
2022/07/16 07:05:43;;;;;;;;;;;18.20;99.90;;;;;;5073697;28;19954;-75
2022/07/16 07:08:09;;;;;;;;;;;18.30;99.90;;;;;;5073546;28;20332;-76
2022/07/16 07:10:35;;;;;;;;;;;18.30;99.90;;;;;;5056330;28;19905;-77
2022/07/16 07:13:00;;;;;;;;;;;18.40;99.90;;;;;;5073226;28;19912;-77
2022/07/16 07:15:26;;;;;;;;;;;18.50;99.90;;;;;;5055676;28;19927;-75
2022/07/16 07:17:52;;;;;;;;;;;18.60;99.90;;;;;;5073220;28;19904;-75
2022/07/16 07:20:18;;;;;;;;;;;18.70;99.90;;;;;;5073768;28;19905;-75
2022/07/16 07:22:43;;;;;;;;;;;18.70;99.90;;;;;;5073220;28;20346;-74
2022/07/16 07:25:09;;;;;;;;;;;18.90;99.90;;;;;;5073281;28;19915;-75
2022/07/16 07:27:35;;;;;;;;;;;19.00;99.90;;;;;;5073024;28;19966;-76
2022/07/16 07:30:01;;;;;;;;;;;19.20;99.90;;;;;;5054956;28;20351;-76
2022/07/16 07:32:26;;;;;;;;;;;19.30;99.90;;;;;;5073327;28;20003;-76
2022/07/16 07:34:52;;;;;;;;;;;19.40;99.90;;;;;;5054690;28;20397;-75
2022/07/16 07:37:17;;;;;;;;;;;19.50;99.90;;;;;;5072511;28;19950;-76
2022/07/16 07:39:43;;;;;;;;;;;19.60;99.90;;;;;;5073394;28;20007;-76
2022/07/16 07:42:09;;;;;;;;;;;19.70;99.90;;;;;;5054820;28;19912;-76
2022/07/16 07:44:35;;;;;;;;;;;19.80;99.90;;;;;;5073181;28;19913;-76
2022/07/16 07:47:00;;;;;;;;;;;19.80;99.90;;;;;;5072193;28;19923;-76
2022/07/16 07:49:27;;;;;;;;;;;19.80;99.90;;;;;;5072820;28;20002;-76
2022/07/16 07:51:54;;;;;;;;;;;19.70;99.90;;;;;;5072575;28;19904;-76
2022/07/16 07:54:20;;;;;;;;;;;19.80;99.90;;;;;;5073172;28;19908;-76
2022/07/16 07:56:45;;;;;;;;;;;19.90;99.90;;;;;;5072852;28;20240;-75
2022/07/16 07:59:11;;;;;;;;;;;20.10;99.90;;;;;;5072713;28;20339;-75
2022/07/16 08:01:36;;;;;;;;;;;20.20;99.90;;;;;;5072840;28;19904;-75
2022/07/16 08:04:02;;;;;;;;;;;20.40;99.90;;;;;;5072231;28;19909;-75
2022/07/16 08:06:27;;;;;;;;;;;20.50;99.90;;;;;;5072955;28;19912;-76
2022/07/16 08:08:53;;;;;;;;;;;20.70;99.90;;;;;;5072264;28;19905;-77
2022/07/16 08:11:19;;;;;;;;;;;20.80;99.90;;;;;;5072664;28;19944;-75
2022/07/16 08:13:44;;;;;;;;;;;20.90;99.90;;;;;;5072799;28;19912;-75
2022/07/16 08:16:10;;;;;;;;;;;21.00;99.90;;;;;;5071771;28;19986;-74
2022/07/16 08:18:35;;;;;;;;;;;21.00;99.90;;;;;;5073102;28;19904;-75
2022/07/16 08:21:01;;;;;;;;;;;21.00;99.90;;;;;;5072777;28;19904;-75
2022/07/16 08:26:11;;;;;;;;;;;21.10;99.90;;;;;;5071902;28;20476;-75
2022/07/16 08:28:40;;;;;;;;;;;21.20;99.90;;;;;;5072531;28;19904;-74
2022/07/16 08:31:06;;;;;;;;;;;21.30;99.90;;;;;;5071884;28;19915;-75
2022/07/16 08:33:32;;;;;;;;;;;21.40;99.90;;;;;;5072627;28;20271;-75
2022/07/16 08:35:58;;;;;;;;;;;21.40;99.90;;;;;;5072362;28;20268;-75
2022/07/16 08:38:23;;;;;;;;;;;21.40;99.90;;;;;;5072560;28;19904;-75
2022/07/16 08:40:49;;;;;;;;;;;21.50;99.90;;;;;;5072398;28;19908;-74
2022/07/16 08:43:15;;;;;;;;;;;21.60;99.90;;;;;;5072818;28;20271;-75
2022/07/16 08:45:41;;;;;;;;;;;21.70;99.90;;;;;;5072434;28;19917;-76
2022/07/16 08:48:06;;;;;;;;;;;21.70;99.90;;;;;;5072031;28;19997;-76
2022/07/16 08:50:32;;;;;;;;;;;21.60;99.90;;;;;;5057890;28;19904;-76
2022/07/16 08:52:58;;;;;;;;;;;21.60;99.90;;;;;;5075990;28;20319;-76
2022/07/16 08:55:24;;;;;;;;;;;21.50;99.90;;;;;;5075721;28;19987;-77
2022/07/16 08:57:51;;;;;;;;;;;21.40;99.90;;;;;;5075688;28;20290;-76
2022/07/16 09:00:17;;;;;;;;;;;21.30;99.90;;;;;;5076137;28;19904;-75
2022/07/16 09:02:48;;;;;;;;;;;21.30;99.90;;;;;;5076409;28;20350;-76
2022/07/16 09:05:14;;;;;;;;;;;21.20;99.90;;;;;;5075598;28;19940;-76
2022/07/16 09:07:39;;;;;;;;;;;21.20;99.90;;;;;;5075760;28;19952;-76
2022/07/16 09:10:06;;;;;;;;;;;21.20;99.90;;;;;;5075623;28;19905;-76
2022/07/16 09:12:32;;;;;;;;;;;21.20;99.90;;;;;;5076186;28;19912;-76
2022/07/16 09:14:58;;;;;;;;;;;21.30;99.90;;;;;;5075596;28;19908;-76
2022/07/16 09:17:23;;;;;;;;;;;21.40;99.90;;;;;;5058065;28;19905;-76
2022/07/16 09:19:49;;;;;;;;;;;21.50;99.90;;;;;;5076166;28;19913;-76
2022/07/16 09:22:15;;;;;;;;;;;21.60;99.90;;;;;;5075069;28;19947;-76
2022/07/16 09:24:46;;;;;;;;;;;21.80;99.90;;;;;;5057922;28;20420;-76
2022/07/16 09:27:11;;;;;;;;;;;21.80;99.90;;;;;;5075309;28;19905;-76
2022/07/16 09:29:43;;;;;;;;;;;21.60;99.90;;;;;;5075899;28;19911;-76
2022/07/16 09:32:09;;;;;;;;;;;21.80;99.90;;;;;;5075081;28;20348;-76
2022/07/16 09:34:34;;;;;;;;;;;21.90;99.90;;;;;;5075793;28;19991;-77
2022/07/16 09:37:04;;;;;;;;;;;21.80;99.90;;;;;;5075277;28;19908;-77
2022/07/16 09:39:31;;;;;;;;;;;21.70;99.90;;;;;;5075482;28;20038;-76
2022/07/16 09:41:56;;;;;;;;;;;21.80;99.90;;;;;;5075067;28;19905;-76
2022/07/16 09:44:24;;;;;;;;;;;21.70;99.90;;;;;;5075512;28;19911;-76
2022/07/16 09:47:02;;;;;;;;;;;21.80;99.90;;;;;;5075305;28;19920;-77
2022/07/16 09:49:28;;;;;;;;;;;21.80;99.90;;;;;;5075358;28;19904;-76
2022/07/16 09:51:54;;;;;;;;;;;21.90;99.90;;;;;;5074956;28;19905;-75
2022/07/16 09:54:27;;;;;;;;;;;21.90;99.90;;;;;;5075077;28;19917;-75
2022/07/16 09:57:08;;;;;;;;;;;21.80;99.90;;;;;;5075132;28;19904;-75
2022/07/16 09:59:33;;;;;;;;;;;21.80;99.90;;;;;;5074849;28;19904;-75
2022/07/16 10:02:00;;;;;;;;;;;21.70;99.90;;;;;;5074368;28;19915;-76
2022/07/16 10:04:26;;;;;;;;;;;21.50;99.90;;;;;;5075093;28;20267;-78
2022/07/16 10:06:52;;;;;;;;;;;21.30;99.90;;;;;;5075579;28;19950;-77
2022/07/16 10:09:18;;;;;;;;;;;21.30;99.90;;;;;;5074307;28;20274;-77
2022/07/16 10:11:44;;;;;;;;;;;21.40;99.90;;;;;;5075017;28;19995;-75
2022/07/16 10:14:09;;;;;;;;;;;21.20;99.90;;;;;;5074403;28;19978;-76
2022/07/16 10:16:39;;;;;;;;;;;21.20;99.90;;;;;;5075017;28;20367;-76
2022/07/16 10:19:06;;;;;;;;;;;21.30;99.90;;;;;;5074067;28;19911;-75
2022/07/16 10:21:31;;;;;;;;;;;21.40;99.90;;;;;;5074802;28;19905;-75
2022/07/16 10:24:07;;;;;;;;;;;21.50;99.90;;;;;;5074108;28;20007;-76
2022/07/16 10:26:33;;;;;;;;;;;21.40;99.90;;;;;;5074797;28;19927;-76
2022/07/16 10:28:59;;;;;;;;;;;21.60;99.90;;;;;;5074168;28;19905;-76
2022/07/16 10:31:31;;;;;;;;;;;21.60;99.90;;;;;;5056800;28;19911;-77
2022/07/16 10:34:29;;;;;;;;;;;21.70;99.90;;;;;;5074144;28;19916;-76
2022/07/16 10:36:55;;;;;;;;;;;21.90;99.90;;;;;;5029504;28;19904;-76
2022/07/16 10:39:22;;;;;;;;;;;21.90;99.90;;;;;;5073791;28;19912;-76
2022/07/16 10:41:49;;;;;;;;;;;22.00;99.90;;;;;;5074211;28;19927;-76
2022/07/16 10:44:14;;;;;;;;;;;22.00;99.90;;;;;;5055890;28;19904;-76
2022/07/16 10:46:59;;;;;;;;;;;22.10;99.90;;;;;;5074379;28;19923;-77
2022/07/16 10:49:25;;;;;;;;;;;22.00;99.90;;;;;;5074617;28;19905;-77
2022/07/16 10:51:55;;;;;;;;;;;21.90;99.90;;;;;;5074052;28;20359;-76
2022/07/16 10:54:21;;;;;;;;;;;21.90;99.90;;;;;;5073766;28;20011;-76
2022/07/16 10:56:50;;;;;;;;;;;22.00;99.90;;;;;;5074528;28;19943;-76
2022/07/16 10:59:25;;;;;;;;;;;22.10;99.90;;;;;;5073609;28;20104;-76
2022/07/16 11:01:53;;;;;;;;;;;22.10;99.90;;;;;;5073812;28;20355;-76
2022/07/16 11:04:29;;;;;;;;;;;22.10;99.90;;;;;;5073198;28;19907;-76
2022/07/16 11:06:55;;;;;;;;;;;22.20;99.90;;;;;;5074012;28;19904;-77
2022/07/16 11:09:28;;;;;;;;;;;22.30;99.90;;;;;;5073282;28;19908;-77
2022/07/16 11:11:54;;;;;;;;;;;22.40;99.90;;;;;;5073182;28;20381;-76
2022/07/16 11:14:19;;;;;;;;;;;22.60;99.90;;;;;;5073092;28;19928;-76
2022/07/16 11:16:51;;;;;;;;;;;22.70;99.90;;;;;;5073755;28;19904;-76
2022/07/16 11:19:17;;;;;;;;;;;22.80;99.90;;;;;;5073104;28;19909;-77
2022/07/16 11:21:56;;;;;;;;;;;22.80;99.90;;;;;;5073738;28;19998;-77
2022/07/16 11:24:23;;;;;;;;;;;22.80;99.90;;;;;;5073071;28;19905;-77
2022/07/16 11:26:48;;;;;;;;;;;22.80;99.90;;;;;;5073369;28;19905;-77
2022/07/16 11:29:14;;;;;;;;;;;22.70;99.90;;;;;;5055079;28;19905;-76
2022/07/16 11:31:40;;;;;;;;;;;22.60;99.90;;;;;;5073517;28;19904;-76
2022/07/16 11:34:06;;;;;;;;;;;22.60;99.90;;;;;;5072806;28;19952;-76
2022/07/16 11:36:34;;;;;;;;;;;22.60;99.90;;;;;;5073067;28;19908;-76
2022/07/16 11:39:02;;;;;;;;;;;22.50;99.90;;;;;;5072876;28;19923;-76
2022/07/16 11:41:31;;;;;;;;;;;22.50;99.90;;;;;;5072952;28;19904;-77
2022/07/16 11:43:56;;;;;;;;;;;22.60;99.90;;;;;;5072923;28;19965;-78
2022/07/16 11:46:24;;;;;;;;;;;22.60;99.90;;;;;;5072146;28;20346;-76
2022/07/16 11:48:50;;;;;;;;;;;22.50;99.90;;;;;;5072589;28;19908;-76
2022/07/16 11:51:15;;;;;;;;;;;22.50;99.90;;;;;;5072913;28;19904;-76
2022/07/16 11:53:41;;;;;;;;;;;22.40;99.90;;;;;;5073108;28;20370;-77
2022/07/16 11:56:07;;;;;;;;;;;22.50;99.90;;;;;;5072752;28;19955;-76
2022/07/16 11:58:33;;;;;;;;;;;22.50;99.90;;;;;;5073046;28;20395;-76
2022/07/16 12:00:59;;;;;;;;;;;22.60;99.90;;;;;;5055040;28;20034;-76
2022/07/16 12:03:24;;;;;;;;;;;22.50;99.90;;;;;;5072196;28;19995;-76
2022/07/16 12:06:03;;;;;;;;;;;22.60;99.90;;;;;;5072695;28;19904;-76
2022/07/16 12:08:30;;;;;;;;;;;22.70;99.90;;;;;;5072531;28;20015;-76
2022/07/16 12:11:13;;;;;;;;;;;22.70;99.90;;;;;;5071783;28;19912;-77
2022/07/16 12:13:50;;;;;;;;;;;22.70;99.90;;;;;;5071230;28;20089;-76
2022/07/16 12:16:18;;;;;;;;;;;22.70;99.90;;;;;;5070566;28;21240;-77
2022/07/16 12:18:57;;;;;;;;;;;22.70;99.90;;;;;;5052856;28;19904;-77
2022/07/16 12:21:27;;;;;;;;;;;22.70;99.90;;;;;;5068046;28;20002;-77
2022/07/16 12:23:53;;;;;;;;;;;22.60;99.90;;;;;;5070351;28;19992;-77
2022/07/16 12:26:26;;;;;;;;;;;22.60;99.90;;;;;;5070023;28;20006;-77
2022/07/16 12:28:53;;;;;;;;;;;22.70;99.90;;;;;;5071237;28;19926;-77
2022/07/16 12:31:18;;;;;;;;;;;22.70;99.90;;;;;;5070271;28;19904;-77
2022/07/16 12:33:50;;;;;;;;;;;22.80;99.90;;;;;;5070956;28;20015;-77
2022/07/16 12:36:18;;;;;;;;;;;22.80;99.90;;;;;;5070217;28;20508;-76
2022/07/16 12:41:19;;;;;;;;;;;22.70;99.90;;;;;;5070037;28;19905;-76
2022/07/16 12:43:48;;;;;;;;;;;22.70;99.90;;;;;;5067992;28;19987;-76
2022/07/16 12:46:14;;;;;;;;;;;22.70;99.90;;;;;;5069881;28;19923;-76
2022/07/16 12:48:47;;;;;;;;;;;22.60;99.90;;;;;;5070659;28;19912;-76
2022/07/16 12:51:14;;;;;;;;;;;22.60;99.90;;;;;;5069777;28;20358;-76
2022/07/16 12:53:40;;;;;;;;;;;22.70;99.90;;;;;;5069766;28;20353;-76
2022/07/16 12:58:50;;;;;;;;;;;22.70;99.90;;;;;;5069027;28;20030;-76
2022/07/16 13:01:16;;;;;;;;;;;22.90;99.90;;;;;;5070446;28;20015;-76
2022/07/16 13:03:42;;;;;;;;;;;23.00;99.90;;;;;;5070998;28;19958;-76
2022/07/16 13:06:08;;;;;;;;;;;23.20;99.90;;;;;;5070739;28;19911;-76
2022/07/16 13:08:35;;;;;;;;;;;23.20;99.90;;;;;;5070578;28;19904;-77
2022/07/16 13:11:01;;;;;;;;;;;23.10;99.90;;;;;;5070801;28;20273;-76
2022/07/16 13:13:26;;;;;;;;;;;23.00;99.90;;;;;;5070805;28;19912;-76
2022/07/16 13:15:52;;;;;;;;;;;23.10;99.90;;;;;;5071066;28;19910;-77
2022/07/16 13:18:17;;;;;;;;;;;23.00;99.90;;;;;;5070915;28;19948;-77
2022/07/16 13:20:43;;;;;;;;;;;23.00;99.90;;;;;;5071141;28;19905;-77
2022/07/16 13:23:08;;;;;;;;;;;22.90;99.90;;;;;;5071274;28;19966;-78
2022/07/16 13:25:34;;;;;;;;;;;22.90;99.90;;;;;;5070569;28;19920;-77
2022/07/16 13:28:00;;;;;;;;;;;23.00;99.90;;;;;;5053917;28;19954;-77
2022/07/16 13:30:26;;;;;;;;;;;23.00;99.90;;;;;;5070651;28;19923;-77
2022/07/16 13:32:51;;;;;;;;;;;23.00;99.90;;;;;;5071721;28;20011;-77
2022/07/16 13:35:17;;;;;;;;;;;23.10;99.90;;;;;;5072118;28;19905;-77
2022/07/16 13:37:43;;;;;;;;;;;23.10;99.90;;;;;;5074826;28;19904;-76
2022/07/16 13:40:09;;;;;;;;;;;23.20;99.90;;;;;;5074191;28;19908;-77
2022/07/16 13:42:35;;;;;;;;;;;23.10;99.90;;;;;;5075511;28;19905;-76
2022/07/16 13:45:00;;;;;;;;;;;23.20;99.90;;;;;;5075319;28;19912;-76
2022/07/16 13:47:26;;;;;;;;;;;23.20;99.90;;;;;;5075434;28;20327;-76
2022/07/16 13:49:51;;;;;;;;;;;23.30;99.90;;;;;;5057450;28;19911;-77
2022/07/16 13:52:17;;;;;;;;;;;23.30;99.90;;;;;;5074557;28;20305;-77
2022/07/16 13:54:43;;;;;;;;;;;23.40;99.90;;;;;;5075320;28;19950;-77
2022/07/16 13:59:52;;;;;;;;;;;23.30;99.90;;;;;;5075004;28;19982;-77
2022/07/16 14:02:18;;;;;;;;;;;23.40;99.90;;;;;;5074316;28;20335;-77
2022/07/16 14:04:43;;;;;;;;;;;23.40;99.90;;;;;;5075178;28;19995;-77
2022/07/16 14:07:09;;;;;;;;;;;23.40;99.90;;;;;;5074404;28;19935;-77
2022/07/16 14:09:35;;;;;;;;;;;23.30;99.90;;;;;;5075124;28;19950;-77
2022/07/16 14:12:01;;;;;;;;;;;23.30;99.90;;;;;;5075339;28;20369;-77
2022/07/16 14:14:26;;;;;;;;;;;23.30;99.90;;;;;;5074123;28;19974;-77
2022/07/16 14:16:52;;;;;;;;;;;23.30;99.90;;;;;;5074783;28;19905;-76
2022/07/16 14:19:17;;;;;;;;;;;23.30;99.90;;;;;;5073927;28;19991;-77
2022/07/16 14:21:44;;;;;;;;;;;23.40;99.90;;;;;;5074862;28;19904;-76
2022/07/16 14:24:12;;;;;;;;;;;23.70;99.90;;;;;;5056213;28;20350;-77